Time;durP1;ratioP1;P1;durP2;ratioP2;P2;SDS_P1;SDS_P2;PMS_P1;PMS_P2;Temp;Humidity;BMP_temperature;BMP_pressure;BME280_temperature;BME280_humidity;BME280_pressure;Samples;Min_cycle;Max_cycle;Signal;HPM_P1;HPM_P2
2022/06/01 00:00:38;;;;;;;3.10;2.10;;;;;;;;;;4977340;28;20212;-31
2022/06/01 00:03:05;;;;;;;2.93;2.30;;;;;;;;;;4986058;28;20401;-36
2022/06/01 00:05:32;;;;;;;2.77;2.20;;;;;;;;;;4974060;28;20212;-32
2022/06/01 00:07:59;;;;;;;1.93;1.83;;;;;;;;;;4980494;28;20288;-31
2022/06/01 00:10:27;;;;;;;2.10;1.93;;;;;;;;;;4983438;28;20204;-34
2022/06/01 00:12:55;;;;;;;2.80;1.77;;;;;;;;;;4977530;28;20208;-35
2022/06/01 00:15:24;;;;;;;1.97;1.80;;;;;;;;;;4974501;28;20204;-32
2022/06/01 00:17:51;;;;;;;2.87;1.87;;;;;;;;;;4974806;28;20228;-32
2022/06/01 00:20:19;;;;;;;2.60;1.70;;;;;;;;;;4975673;28;20414;-34
2022/06/01 00:22:47;;;;;;;2.03;1.93;;;;;;;;;;4971390;28;20208;-32
2022/06/01 00:25:14;;;;;;;2.13;2.00;;;;;;;;;;4975342;28;20215;-32
2022/06/01 00:27:42;;;;;;;2.60;1.60;;;;;;;;;;4986500;28;20219;-34
2022/06/01 00:30:11;;;;;;;2.23;2.03;;;;;;;;;;4977485;28;20627;-31
2022/06/01 00:32:39;;;;;;;1.77;1.67;;;;;;;;;;4980850;28;20211;-32
2022/06/01 00:35:07;;;;;;;2.27;1.90;;;;;;;;;;4971110;28;20201;-32
2022/06/01 00:37:35;;;;;;;1.87;1.77;;;;;;;;;;4975921;28;20228;-32
2022/06/01 00:40:02;;;;;;;2.53;2.07;;;;;;;;;;4976088;28;20573;-34
2022/06/01 00:42:30;;;;;;;2.70;1.80;;;;;;;;;;4970446;28;20208;-32
2022/06/01 00:44:58;;;;;;;2.23;2.10;;;;;;;;;;4970828;28;20196;-35
2022/06/01 00:47:26;;;;;;;2.07;1.87;;;;;;;;;;4975614;28;20212;-35
2022/06/01 00:49:57;;;;;;;2.20;2.00;;;;;;;;;;4981637;28;20196;-36
2022/06/01 00:52:36;;;;;;;3.87;1.97;;;;;;;;;;4990564;28;20196;-32
2022/06/01 00:55:05;;;;;;;3.97;2.20;;;;;;;;;;4983111;28;20211;-32
2022/06/01 00:57:33;;;;;;;3.33;1.97;;;;;;;;;;4989425;28;20223;-34
2022/06/01 01:00:01;;;;;;;3.03;2.20;;;;;;;;;;4969235;28;20215;-34
2022/06/01 01:02:30;;;;;;;2.33;2.03;;;;;;;;;;4988758;28;20213;-34
2022/06/01 01:04:58;;;;;;;1.80;1.70;;;;;;;;;;4990666;28;20204;-31
2022/06/01 01:07:27;;;;;;;1.93;1.83;;;;;;;;;;4990881;28;20229;-33
2022/06/01 01:09:54;;;;;;;3.70;2.03;;;;;;;;;;4985418;28;20227;-31
2022/06/01 01:12:21;;;;;;;2.03;1.90;;;;;;;;;;4971934;28;20217;-35
2022/06/01 01:14:48;;;;;;;2.70;2.30;;;;;;;;;;4980479;28;20208;-34
2022/06/01 01:17:15;;;;;;;2.13;1.87;;;;;;;;;;4981492;28;20686;-33
2022/06/01 01:19:46;;;;;;;2.00;1.87;;;;;;;;;;4988580;28;20305;-35
2022/06/01 01:22:23;;;;;;;1.97;1.87;;;;;;;;;;4992578;28;20208;-36
2022/06/01 01:25:05;;;;;;;2.10;1.70;;;;;;;;;;4989846;28;20662;-33
2022/06/01 01:27:34;;;;;;;2.27;1.93;;;;;;;;;;4979880;28;20228;-32
2022/06/01 01:30:01;;;;;;;2.20;1.77;;;;;;;;;;4981745;28;20223;-32
2022/06/01 01:32:28;;;;;;;1.87;1.77;;;;;;;;;;4979087;28;20658;-30
2022/06/01 01:34:55;;;;;;;1.77;1.67;;;;;;;;;;4989498;28;20227;-33
2022/06/01 01:37:24;;;;;;;2.90;2.20;;;;;;;;;;4975082;28;20228;-35
2022/06/01 01:39:53;;;;;;;2.17;1.93;;;;;;;;;;4973793;28;20204;-35
2022/06/01 01:42:20;;;;;;;4.13;1.80;;;;;;;;;;4988425;28;20216;-30
2022/06/01 01:44:53;;;;;;;2.10;2.00;;;;;;;;;;4990752;28;20232;-31
2022/06/01 01:47:21;;;;;;;2.83;2.00;;;;;;;;;;4977527;28;20232;-32
2022/06/01 01:49:49;;;;;;;2.70;2.17;;;;;;;;;;4991852;28;20208;-33
2022/06/01 01:52:17;;;;;;;3.73;2.20;;;;;;;;;;4977595;28;20208;-33
2022/06/01 01:54:49;;;;;;;2.07;1.97;;;;;;;;;;4990365;28;20201;-35
2022/06/01 01:57:19;;;;;;;2.20;2.00;;;;;;;;;;4989657;28;20228;-32
2022/06/01 01:59:52;;;;;;;1.93;1.73;;;;;;;;;;4974938;28;20307;-34
2022/06/01 02:02:22;;;;;;;2.50;1.90;;;;;;;;;;4987476;28;20207;-35
2022/06/01 02:07:40;;;;;;;2.37;2.10;;;;;;;;;;4974034;28;20251;-33
2022/06/01 02:12:54;;;;;;;2.40;2.20;;;;;;;;;;4989479;28;20206;-31
2022/06/01 02:15:26;;;;;;;2.30;1.67;;;;;;;;;;4972607;28;20215;-32
2022/06/01 02:17:56;;;;;;;1.93;1.83;;;;;;;;;;4984849;28;20225;-32
2022/06/01 02:20:26;;;;;;;2.30;2.10;;;;;;;;;;4980658;28;20207;-34
2022/06/01 02:22:54;;;;;;;3.37;2.00;;;;;;;;;;4991024;28;20214;-33
2022/06/01 02:25:21;;;;;;;2.13;1.93;;;;;;;;;;4983423;28;20199;-34
2022/06/01 02:27:49;;;;;;;2.30;1.90;;;;;;;;;;4982475;28;20201;-33
2022/06/01 02:30:18;;;;;;;2.47;1.70;;;;;;;;;;4983541;28;20231;-30
2022/06/01 02:32:47;;;;;;;2.20;2.00;;;;;;;;;;4984020;28;20224;-35
2022/06/01 02:35:15;;;;;;;2.87;2.13;;;;;;;;;;4978579;28;20463;-31
2022/06/01 02:37:45;;;;;;;1.90;1.80;;;;;;;;;;4973540;28;20235;-33
2022/06/01 02:40:14;;;;;;;1.93;1.60;;;;;;;;;;4985072;28;20260;-33
2022/06/01 02:42:44;;;;;;;2.10;1.90;;;;;;;;;;4976549;28;20209;-32
2022/06/01 02:45:12;;;;;;;1.80;1.70;;;;;;;;;;4992584;28;20207;-33
2022/06/01 02:47:40;;;;;;;2.80;2.03;;;;;;;;;;4980221;28;20231;-30
2022/06/01 02:50:10;;;;;;;3.07;1.83;;;;;;;;;;4992415;28;20196;-33
2022/06/01 02:52:38;;;;;;;1.70;1.60;;;;;;;;;;4992664;28;20207;-33
2022/06/01 02:55:06;;;;;;;3.57;2.30;;;;;;;;;;4978310;28;20205;-31
2022/06/01 02:57:33;;;;;;;3.27;2.10;;;;;;;;;;4976022;28;20221;-33
2022/06/01 03:00:00;;;;;;;2.07;1.63;;;;;;;;;;4981311;28;20219;-35
2022/06/01 03:02:27;;;;;;;4.23;1.90;;;;;;;;;;4983099;28;20211;-32
2022/06/01 03:04:54;;;;;;;2.00;1.90;;;;;;;;;;4991941;28;20230;-34
2022/06/01 03:07:23;;;;;;;1.67;1.57;;;;;;;;;;4992968;28;20250;-33
2022/06/01 03:09:50;;;;;;;1.87;1.77;;;;;;;;;;4986592;28;20204;-31
2022/06/01 03:12:17;;;;;;;2.30;2.00;;;;;;;;;;4992036;28;20208;-32
2022/06/01 03:14:44;;;;;;;1.83;1.73;;;;;;;;;;4974225;28;20209;-35
2022/06/01 03:17:11;;;;;;;2.47;1.97;;;;;;;;;;4983478;28;20230;-33
2022/06/01 03:19:38;;;;;;;1.87;1.77;;;;;;;;;;4990567;28;20213;-32
2022/06/01 03:22:05;;;;;;;2.70;2.13;;;;;;;;;;4972746;28;20208;-32
2022/06/01 03:24:34;;;;;;;1.80;1.70;;;;;;;;;;4971964;28;20655;-34
2022/06/01 03:27:02;;;;;;;2.50;1.70;;;;;;;;;;4976364;28;20220;-31
2022/06/01 03:31:59;;;;;;;2.90;2.00;;;;;;;;;;4973413;28;20559;-31
2022/06/01 03:34:30;;;;;;;2.63;2.10;;;;;;;;;;4980037;28;20219;-29
2022/06/01 03:36:57;;;;;;;1.80;1.70;;;;;;;;;;4991868;28;20602;-29
2022/06/01 03:39:24;;;;;;;1.60;1.50;;;;;;;;;;4993666;28;20212;-29
2022/06/01 03:41:53;;;;;;;2.20;2.00;;;;;;;;;;4981662;28;20342;-28
2022/06/01 03:47:05;;;;;;;2.17;2.00;;;;;;;;;;4979726;28;20219;-32
2022/06/01 03:49:33;;;;;;;2.40;1.90;;;;;;;;;;4976977;28;20215;-31
2022/06/01 03:52:00;;;;;;;1.80;1.70;;;;;;;;;;4975058;28;20204;-26
2022/06/01 03:54:27;;;;;;;2.50;2.30;;;;;;;;;;4975555;28;20231;-29
2022/06/01 03:56:56;;;;;;;1.70;1.60;;;;;;;;;;4982255;28;20573;-29
2022/06/01 03:59:23;;;;;;;2.43;2.20;;;;;;;;;;4978800;28;20196;-27
2022/06/01 04:01:50;;;;;;;1.90;1.80;;;;;;;;;;4976870;28;20207;-30
2022/06/01 04:04:17;;;;;;;2.47;2.00;;;;;;;;;;4988408;28;20204;-28
2022/06/01 04:06:44;;;;;;;2.40;2.20;;;;;;;;;;4975967;28;20220;-30
2022/06/01 04:09:11;;;;;;;2.00;1.77;;;;;;;;;;4974418;28;20211;-31
2022/06/01 04:11:38;;;;;;;2.87;1.87;;;;;;;;;;4987249;28;20214;-32
2022/06/01 04:14:07;;;;;;;3.17;2.00;;;;;;;;;;4986370;28;20200;-31
2022/06/01 04:16:34;;;;;;;3.27;2.13;;;;;;;;;;4981670;28;20230;-28
2022/06/01 04:19:01;;;;;;;2.10;1.90;;;;;;;;;;4985854;28;20215;-29
2022/06/01 04:21:29;;;;;;;2.30;2.10;;;;;;;;;;4993661;28;20650;-30
2022/06/01 04:24:00;;;;;;;2.10;2.00;;;;;;;;;;4993653;28;20210;-28
2022/06/01 04:26:27;;;;;;;3.80;2.27;;;;;;;;;;4987609;28;20232;-29
2022/06/01 04:28:55;;;;;;;1.83;1.60;;;;;;;;;;4986276;28;20200;-31
2022/06/01 04:31:23;;;;;;;1.83;1.73;;;;;;;;;;4978788;28;20662;-29
2022/06/01 04:33:51;;;;;;;1.87;1.77;;;;;;;;;;4985518;28;20535;-28
2022/06/01 04:36:20;;;;;;;2.63;1.90;;;;;;;;;;4987289;28;20854;-32
2022/06/01 04:38:47;;;;;;;2.83;2.00;;;;;;;;;;4992058;28;20215;-29
2022/06/01 04:41:14;;;;;;;1.80;1.70;;;;;;;;;;4979229;28;20211;-28
2022/06/01 04:43:41;;;;;;;2.87;2.10;;;;;;;;;;4983350;28;20199;-30
2022/06/01 04:46:08;;;;;;;2.20;1.83;;;;;;;;;;4978821;28;20228;-29
2022/06/01 04:48:37;;;;;;;2.07;1.97;;;;;;;;;;4988343;28;20204;-30
2022/06/01 04:51:04;;;;;;;2.50;2.30;;;;;;;;;;4985808;28;20551;-31
2022/06/01 04:53:31;;;;;;;2.97;2.27;;;;;;;;;;4990741;28;20208;-29
2022/06/01 04:55:58;;;;;;;4.60;2.30;;;;;;;;;;4984286;28;20221;-27
2022/06/01 04:58:25;;;;;;;2.07;1.93;;;;;;;;;;4982875;28;20225;-28
2022/06/01 05:00:53;;;;;;;2.30;2.10;;;;;;;;;;4986074;28;20199;-31
2022/06/01 05:03:20;;;;;;;2.00;1.80;;;;;;;;;;4987720;28;20267;-29
2022/06/01 05:05:48;;;;;;;2.67;2.23;;;;;;;;;;4976897;28;20226;-27
2022/06/01 05:08:16;;;;;;;2.93;2.57;;;;;;;;;;4983124;28;20196;-32
2022/06/01 05:10:43;;;;;;;2.43;2.23;;;;;;;;;;4992505;28;20227;-30
2022/06/01 05:13:11;;;;;;;3.67;2.47;;;;;;;;;;4992584;28;20262;-29
2022/06/01 05:15:39;;;;;;;2.60;2.40;;;;;;;;;;4977605;28;20264;-28
2022/06/01 05:18:09;;;;;;;5.27;2.50;;;;;;;;;;4990098;28;20226;-30
2022/06/01 05:20:37;;;;;;;2.77;2.27;;;;;;;;;;4982484;28;20243;-27
2022/06/01 05:23:05;;;;;;;4.67;2.40;;;;;;;;;;4984822;28;20208;-29
2022/06/01 05:25:32;;;;;;;4.50;2.73;;;;;;;;;;4984879;28;20204;-30
2022/06/01 05:27:59;;;;;;;2.53;2.33;;;;;;;;;;4992043;28;20673;-30
2022/06/01 05:30:27;;;;;;;3.60;2.60;;;;;;;;;;4983960;28;20219;-27
2022/06/01 05:32:54;;;;;;;3.20;2.50;;;;;;;;;;4983802;28;20278;-33
2022/06/01 05:35:21;;;;;;;3.13;2.43;;;;;;;;;;4985112;28;20208;-28
2022/06/01 05:37:48;;;;;;;3.33;2.33;;;;;;;;;;4984267;28;20224;-28
2022/06/01 05:40:17;;;;;;;4.33;2.77;;;;;;;;;;4984186;28;20709;-33
2022/06/01 05:42:44;;;;;;;3.00;2.70;;;;;;;;;;4977661;28;20210;-33
2022/06/01 05:45:11;;;;;;;5.37;3.00;;;;;;;;;;4989207;28;20215;-30
2022/06/01 05:47:38;;;;;;;2.97;2.77;;;;;;;;;;4987746;28;20231;-30
2022/06/01 05:50:07;;;;;;;3.37;2.70;;;;;;;;;;4986184;28;20657;-33
2022/06/01 05:52:38;;;;;;;2.50;2.30;;;;;;;;;;4996423;28;20219;-31
2022/06/01 05:55:06;;;;;;;3.63;2.50;;;;;;;;;;4989371;28;20196;-33
2022/06/01 05:57:34;;;;;;;3.83;2.70;;;;;;;;;;4987165;28;20235;-29
2022/06/01 06:00:02;;;;;;;5.00;2.90;;;;;;;;;;4984963;28;20208;-29
2022/06/01 06:02:29;;;;;;;3.47;2.77;;;;;;;;;;4984659;28;20550;-30
2022/06/01 06:04:56;;;;;;;5.97;3.00;;;;;;;;;;4983845;28;20216;-30
2022/06/01 06:07:24;;;;;;;3.07;2.50;;;;;;;;;;4995326;28;20226;-31
2022/06/01 06:09:51;;;;;;;3.10;2.53;;;;;;;;;;4992709;28;20202;-29
2022/06/01 06:12:18;;;;;;;5.30;2.47;;;;;;;;;;4989730;28;20206;-27
2022/06/01 06:14:49;;;;;;;2.83;2.57;;;;;;;;;;4995155;28;20202;-31
2022/06/01 06:17:16;;;;;;;5.27;2.60;;;;;;;;;;4988349;28;20281;-30
2022/06/01 06:19:43;;;;;;;5.00;2.73;;;;;;;;;;4996442;28;20230;-30
2022/06/01 06:22:11;;;;;;;3.10;2.37;;;;;;;;;;4997053;28;20213;-33
2022/06/01 06:24:38;;;;;;;3.67;2.17;;;;;;;;;;4992695;28;20215;-29
2022/06/01 06:27:05;;;;;;;2.73;2.53;;;;;;;;;;4982596;28;20222;-31
2022/06/01 06:29:32;;;;;;;2.50;2.30;;;;;;;;;;4991710;28;20201;-33
2022/06/01 06:32:00;;;;;;;2.73;2.30;;;;;;;;;;4986824;28;20235;-33
2022/06/01 06:34:29;;;;;;;2.77;2.30;;;;;;;;;;4984016;28;20204;-29
2022/06/01 06:36:56;;;;;;;2.73;2.40;;;;;;;;;;4975974;28;20230;-32
2022/06/01 06:39:23;;;;;;;2.60;2.30;;;;;;;;;;4979661;28;20263;-31
2022/06/01 06:41:50;;;;;;;2.13;2.03;;;;;;;;;;4992086;28;20218;-31
2022/06/01 06:44:18;;;;;;;3.57;2.37;;;;;;;;;;4994907;28;20195;-31
2022/06/01 06:46:45;;;;;;;2.30;2.10;;;;;;;;;;4989444;28;20563;-32
2022/06/01 06:49:13;;;;;;;3.43;2.17;;;;;;;;;;4983298;28;20204;-32
2022/06/01 06:51:40;;;;;;;3.40;2.20;;;;;;;;;;4975383;28;20211;-34
2022/06/01 06:54:08;;;;;;;2.90;2.00;;;;;;;;;;4973792;28;20204;-31
2022/06/01 06:56:35;;;;;;;4.55;3.05;;;;;;;;;;4976649;28;20259;-32
2022/06/01 06:59:02;;;;;;;2.38;2.10;;;;;;;;;;4986561;28;20222;-32
2022/06/01 07:01:30;;;;;;;2.53;2.33;;;;;;;;;;4991617;28;20199;-30
2022/06/01 07:03:57;;;;;;;2.72;2.30;;;;;;;;;;4975505;28;20200;-32
2022/06/01 07:06:25;;;;;;;3.38;2.13;;;;;;;;;;4974822;28;20227;-28
2022/06/01 07:08:53;;;;;;;4.43;2.42;;;;;;;;;;4974908;28;20205;-30
2022/06/01 07:11:22;;;;;;;2.38;2.17;;;;;;;;;;4975234;28;20206;-32
2022/06/01 07:13:50;;;;;;;2.13;1.92;;;;;;;;;;4984628;28;20205;-30
2022/06/01 07:16:18;;;;;;;2.35;1.80;;;;;;;;;;4987847;28;20232;-33
2022/06/01 07:18:47;;;;;;;2.00;1.90;;;;;;;;;;4983429;28;20224;-33
2022/06/01 07:21:14;;;;;;;4.90;2.00;;;;;;;;;;4994145;28;20196;-32
2022/06/01 07:23:43;;;;;;;2.50;1.83;;;;;;;;;;4991681;28;20208;-32
2022/06/01 07:26:11;;;;;;;2.88;2.08;;;;;;;;;;4973681;28;20231;-33
2022/06/01 07:28:38;;;;;;;1.70;1.60;;;;;;;;;;4981381;28;20203;-30
2022/06/01 07:31:06;;;;;;;2.63;1.92;;;;;;;;;;4976469;28;20216;-30
2022/06/01 07:33:35;;;;;;;4.20;2.03;;;;;;;;;;4982028;28;20236;-32
2022/06/01 07:36:04;;;;;;;2.55;1.95;;;;;;;;;;4993956;28;20259;-33
2022/06/01 07:44:08;;;;;;;1.80;1.70;;;;;;;;;;4974380;28;20304;-29
2022/06/01 07:46:36;;;;;;;2.05;1.63;;;;;;;;;;4978481;28;20231;-30
2022/06/01 07:49:04;;;;;;;3.20;1.40;;;;;;;;;;4985279;28;20191;-32
2022/06/01 07:51:31;;;;;;;3.22;1.88;;;;;;;;;;4977580;28;20203;-29
2022/06/01 07:53:58;;;;;;;2.03;1.83;;;;;;;;;;4973945;28;20205;-28
2022/06/01 07:56:27;;;;;;;1.50;1.40;;;;;;;;;;4980096;28;20243;-30
2022/06/01 07:58:54;;;;;;;2.35;1.45;;;;;;;;;;4974007;28;20216;-29
2022/06/01 08:01:25;;;;;;;5.57;2.03;;;;;;;;;;4975297;28;20211;-33
2022/06/01 08:03:52;;;;;;;1.92;1.70;;;;;;;;;;4981405;28;20212;-31
2022/06/01 08:06:19;;;;;;;4.22;1.77;;;;;;;;;;4988703;28;20312;-33
2022/06/01 08:08:46;;;;;;;2.72;1.70;;;;;;;;;;4986574;28;20220;-31
2022/06/01 08:11:13;;;;;;;2.53;1.25;;;;;;;;;;4977715;28;20212;-31
2022/06/01 08:13:42;;;;;;;4.97;1.60;;;;;;;;;;4981532;28;20208;-32
2022/06/01 08:16:09;;;;;;;2.20;1.48;;;;;;;;;;4978501;28;20223;-30
2022/06/01 08:18:36;;;;;;;1.80;1.52;;;;;;;;;;4982132;28;20230;-30
2022/06/01 08:21:04;;;;;;;2.92;1.40;;;;;;;;;;4993530;28;20208;-30
2022/06/01 08:23:32;;;;;;;2.78;1.50;;;;;;;;;;4987847;28;20208;-30
2022/06/01 08:26:00;;;;;;;2.25;1.50;;;;;;;;;;4971085;28;20226;-30
2022/06/01 08:28:27;;;;;;;2.55;1.45;;;;;;;;;;4978441;28;20603;-30
2022/06/01 08:30:56;;;;;;;2.45;1.38;;;;;;;;;;4987772;28;20212;-31
2022/06/01 08:33:24;;;;;;;2.00;1.50;;;;;;;;;;4987843;28;20203;-29
2022/06/01 08:35:52;;;;;;;1.80;1.33;;;;;;;;;;4982360;28;20216;-29
2022/06/01 08:38:19;;;;;;;2.70;1.07;;;;;;;;;;4992992;28;20298;-29
2022/06/01 08:40:51;;;;;;;1.13;1.10;;;;;;;;;;4985453;28;20221;-31
2022/06/01 08:43:20;;;;;;;1.95;1.40;;;;;;;;;;4976232;28;20205;-29
2022/06/01 08:45:50;;;;;;;1.60;1.50;;;;;;;;;;4971110;28;20224;-33
2022/06/01 08:48:21;;;;;;;1.27;1.15;;;;;;;;;;4976867;28;20204;-30
2022/06/01 08:50:48;;;;;;;2.70;1.65;;;;;;;;;;4972999;28;20196;-30
2022/06/01 08:53:15;;;;;;;1.75;1.00;;;;;;;;;;4973026;28;20679;-29
2022/06/01 08:55:46;;;;;;;2.00;0.90;;;;;;;;;;4988178;28;20232;-30
2022/06/01 08:58:15;;;;;;;1.77;1.20;;;;;;;;;;4984918;28;20200;-28
2022/06/01 09:00:46;;;;;;;1.80;1.00;;;;;;;;;;4988047;28;20212;-32
2022/06/01 09:03:15;;;;;;;1.10;0.93;;;;;;;;;;4985572;28;20210;-31
2022/06/01 09:05:46;;;;;;;1.10;1.00;;;;;;;;;;4989180;28;20215;-30
2022/06/01 09:08:19;;;;;;;0.90;0.90;;;;;;;;;;4993506;28;20204;-31
2022/06/01 09:10:59;;;;;;;1.13;1.02;;;;;;;;;;4981406;28;20208;-27
2022/06/01 09:13:28;;;;;;;3.50;1.10;;;;;;;;;;4973512;28;20212;-33
2022/06/01 09:15:57;;;;;;;1.52;1.10;;;;;;;;;;4974439;28;20220;-32
2022/06/01 09:18:25;;;;;;;1.30;1.08;;;;;;;;;;4975625;28;20201;-29
2022/06/01 09:23:39;;;;;;;1.00;1.00;;;;;;;;;;4972915;28;20207;-31
2022/06/01 09:26:06;;;;;;;0.80;0.80;;;;;;;;;;4972692;28;20236;-29
2022/06/01 09:31:03;;;;;;;1.52;1.10;;;;;;;;;;4980136;28;20209;-32
2022/06/01 09:33:32;;;;;;;2.50;1.40;;;;;;;;;;4981411;28;20292;-37
2022/06/01 09:36:05;;;;;;;0.90;0.90;;;;;;;;;;4979500;28;20215;-33
2022/06/01 09:38:37;;;;;;;1.43;1.00;;;;;;;;;;4989107;28;20200;-36
2022/06/01 09:41:05;;;;;;;1.03;1.03;;;;;;;;;;4972407;28;20211;-35
2022/06/01 09:43:33;;;;;;;1.10;1.00;;;;;;;;;;4982515;28;20294;-39
2022/06/01 09:46:00;;;;;;;4.97;1.43;;;;;;;;;;4991990;28;20220;-40
2022/06/01 09:48:30;;;;;;;1.23;1.13;;;;;;;;;;4988007;28;20211;-36
2022/06/01 09:51:05;;;;;;;1.97;1.10;;;;;;;;;;4976758;28;20228;-36
2022/06/01 09:53:37;;;;;;;1.33;1.10;;;;;;;;;;4975836;28;20184;-39
2022/06/01 09:56:07;;;;;;;0.90;0.90;;;;;;;;;;4985844;28;20223;-33
2022/06/01 10:06:54;;;;;;;1.47;1.13;;;;;;;;;;4995287;28;20260;-38
2022/06/01 10:09:25;;;;;;;1.80;1.27;;;;;;;;;;4993727;28;20220;-39
2022/06/01 10:11:54;;;;;;;1.20;1.10;;;;;;;;;;4977062;28;20229;-36
2022/06/01 10:14:23;;;;;;;3.30;1.27;;;;;;;;;;4983538;28;20254;-40
2022/06/01 10:17:08;;;;;;;1.37;1.17;;;;;;;;;;4988544;28;20231;-39
2022/06/01 10:19:37;;;;;;;1.27;1.17;;;;;;;;;;4981429;28;20212;-37
2022/06/01 10:22:07;;;;;;;1.90;1.07;;;;;;;;;;4989831;28;20204;-36
2022/06/01 10:24:38;;;;;;;1.30;0.90;;;;;;;;;;4990057;28;20201;-34
2022/06/01 10:27:06;;;;;;;1.20;1.10;;;;;;;;;;4976661;28;20224;-38
2022/06/01 10:29:35;;;;;;;3.70;1.30;;;;;;;;;;4984575;28;20209;-36
2022/06/01 10:32:07;;;;;;;2.63;1.03;;;;;;;;;;4987011;28;20208;-42
2022/06/01 10:34:39;;;;;;;1.10;1.07;;;;;;;;;;4991717;28;20229;-36
2022/06/01 10:37:13;;;;;;;2.00;1.30;;;;;;;;;;4976725;28;20315;-33
2022/06/01 10:39:44;;;;;;;2.90;1.97;;;;;;;;;;4977981;28;20248;-38
2022/06/01 10:42:17;;;;;;;1.33;0.90;;;;;;;;;;4977912;28;20263;-35
2022/06/01 10:44:47;;;;;;;2.43;1.13;;;;;;;;;;4993242;28;20235;-37
2022/06/01 10:47:17;;;;;;;1.20;1.10;;;;;;;;;;4986448;28;20223;-36
2022/06/01 10:49:48;;;;;;;3.40;0.80;;;;;;;;;;4986015;28;20196;-35
2022/06/01 10:52:24;;;;;;;1.73;0.80;;;;;;;;;;4994777;28;20230;-37
2022/06/01 10:54:57;;;;;;;4.43;1.07;;;;;;;;;;4993571;28;20207;-38
2022/06/01 10:57:27;;;;;;;2.17;0.90;;;;;;;;;;4978517;28;20230;-40
2022/06/01 10:59:54;;;;;;;1.17;0.80;;;;;;;;;;4991530;28;20219;-38
2022/06/01 11:02:30;;;;;;;3.03;1.10;;;;;;;;;;4982170;28;20207;-38
2022/06/01 11:05:23;;;;;;;2.30;0.80;;;;;;;;;;4975006;28;20199;-37
2022/06/01 11:08:11;;;;;;;0.90;0.90;;;;;;;;;;4966177;28;20211;-36
2022/06/01 11:10:46;;;;;;;2.30;1.00;;;;;;;;;;4985191;28;20199;-41
2022/06/01 11:13:19;;;;;;;1.30;1.20;;;;;;;;;;4978069;28;20203;-42
2022/06/01 11:15:50;;;;;;;0.83;0.83;;;;;;;;;;4988760;28;20235;-34
2022/06/01 11:18:26;;;;;;;0.80;0.80;;;;;;;;;;4980776;28;20271;-36
2022/06/01 11:21:02;;;;;;;1.43;0.90;;;;;;;;;;4992192;28;20223;-35
2022/06/01 11:23:36;;;;;;;1.10;0.90;;;;;;;;;;4994830;28;20187;-34
2022/06/01 11:26:11;;;;;;;2.90;1.00;;;;;;;;;;4988695;28;20278;-39
2022/06/01 11:28:53;;;;;;;0.80;0.80;;;;;;;;;;4991011;28;20355;-38
2022/06/01 11:31:21;;;;;;;1.43;1.10;;;;;;;;;;4990691;28;20227;-35
2022/06/01 11:33:52;;;;;;;1.37;1.03;;;;;;;;;;4981884;28;20208;-43
2022/06/01 11:36:23;;;;;;;1.43;1.00;;;;;;;;;;4989363;28;20219;-39
2022/06/01 11:38:52;;;;;;;0.80;0.77;;;;;;;;;;4993967;28;20290;-34
2022/06/01 11:41:25;;;;;;;5.47;1.17;;;;;;;;;;4986372;28;20228;-35
2022/06/01 11:43:54;;;;;;;1.70;0.90;;;;;;;;;;4977903;28;20223;-40
2022/06/01 11:46:26;;;;;;;1.23;1.00;;;;;;;;;;4985950;28;20223;-31
2022/06/01 11:48:56;;;;;;;1.10;1.00;;;;;;;;;;4984672;28;20207;-36
2022/06/01 11:51:27;;;;;;;0.80;0.80;;;;;;;;;;4994074;28;20223;-32
2022/06/01 11:54:00;;;;;;;2.47;0.80;;;;;;;;;;4986081;28;20330;-37
2022/06/01 11:56:36;;;;;;;1.27;0.97;;;;;;;;;;4977195;28;20322;-34
2022/06/01 11:59:05;;;;;;;1.00;0.90;;;;;;;;;;4982378;28;20288;-37
2022/06/01 12:01:38;;;;;;;1.30;0.87;;;;;;;;;;4982442;28;20226;-36
2022/06/01 12:04:12;;;;;;;1.00;0.90;;;;;;;;;;4992340;28;20202;-36
2022/06/01 12:06:46;;;;;;;2.77;1.20;;;;;;;;;;4993406;28;20218;-31
2022/06/01 12:09:16;;;;;;;1.10;0.90;;;;;;;;;;4987500;28;20204;-36
2022/06/01 12:11:47;;;;;;;0.90;0.90;;;;;;;;;;4983858;28;20203;-36
2022/06/01 12:14:38;;;;;;;1.20;0.90;;;;;;;;;;4983370;28;20212;-36
2022/06/01 12:17:29;;;;;;;0.70;0.70;;;;;;;;;;4971372;28;20227;-40
2022/06/01 12:20:15;;;;;;;1.73;0.80;;;;;;;;;;4993335;28;20212;-32
2022/06/01 12:28:33;;;;;;;1.57;0.90;;;;;;;;;;4973249;28;20211;-39
2022/06/01 12:31:13;;;;;;;1.23;0.90;;;;;;;;;;4979361;28;20207;-36
2022/06/01 12:33:59;;;;;;;1.53;0.93;;;;;;;;;;4979969;28;20208;-39
2022/06/01 12:36:26;;;;;;;1.43;1.00;;;;;;;;;;4990084;28;20315;-34
2022/06/01 12:38:54;;;;;;;6.43;0.87;;;;;;;;;;4993864;28;20212;-41
2022/06/01 12:41:23;;;;;;;1.30;1.10;;;;;;;;;;4988562;28;20223;-38
2022/06/01 12:43:52;;;;;;;1.47;0.93;;;;;;;;;;4993328;28;20235;-34
2022/06/01 12:46:21;;;;;;;0.90;0.90;;;;;;;;;;4988636;28;20227;-37
2022/06/01 12:48:49;;;;;;;0.90;0.90;;;;;;;;;;4987348;28;20196;-31
2022/06/01 12:51:17;;;;;;;3.57;1.00;;;;;;;;;;4990960;28;20203;-35
2022/06/01 12:53:45;;;;;;;1.07;0.97;;;;;;;;;;4983649;28;20344;-37
2022/06/01 12:56:15;;;;;;;2.20;1.10;;;;;;;;;;4986381;28;20223;-35
2022/06/01 12:58:43;;;;;;;0.93;0.90;;;;;;;;;;4983181;28;20263;-37
2022/06/01 13:01:12;;;;;;;1.07;0.97;;;;;;;;;;4989845;28;20277;-36
2022/06/01 13:03:44;;;;;;;1.63;0.87;;;;;;;;;;4991580;28;20208;-32
2022/06/01 13:06:13;;;;;;;0.90;0.90;;;;;;;;;;4984494;28;20302;-36
2022/06/01 13:08:41;;;;;;;1.87;1.10;;;;;;;;;;4992837;28;20204;-34
2022/06/01 13:11:20;;;;;;;0.90;0.90;;;;;;;;;;4988570;28;20283;-34
2022/06/01 13:13:48;;;;;;;1.00;0.80;;;;;;;;;;4983751;28;20210;-36
2022/06/01 13:16:16;;;;;;;2.60;0.90;;;;;;;;;;4984582;28;20224;-38
2022/06/01 13:18:45;;;;;;;1.23;1.00;;;;;;;;;;4978074;28;20204;-36
2022/06/01 13:21:15;;;;;;;2.05;1.08;;;;;;;;;;4987948;28;20219;-33
2022/06/01 13:23:52;;;;;;;0.88;0.88;;;;;;;;;;4991199;28;20195;-37
2022/06/01 13:26:23;;;;;;;0.90;0.80;;;;;;;;;;4990931;28;20258;-42
2022/06/01 13:28:52;;;;;;;1.30;1.00;;;;;;;;;;4984478;28;20201;-33
2022/06/01 13:31:21;;;;;;;1.00;0.80;;;;;;;;;;4982154;28;20192;-35
2022/06/01 13:33:50;;;;;;;3.67;2.93;;;;;;;;;;4981865;28;20204;-38
2022/06/01 13:36:27;;;;;;;1.87;1.20;;;;;;;;;;4987039;28;20222;-34
2022/06/01 13:39:01;;;;;;;1.02;0.93;;;;;;;;;;4978773;28;20196;-38
2022/06/01 13:41:34;;;;;;;0.93;0.93;;;;;;;;;;4989786;28;20228;-39
2022/06/01 13:44:05;;;;;;;2.70;0.87;;;;;;;;;;4985309;28;20269;-37
2022/06/01 13:46:36;;;;;;;1.87;1.00;;;;;;;;;;4985754;28;20220;-35
2022/06/01 13:49:04;;;;;;;1.27;0.90;;;;;;;;;;4994211;28;20202;-36
2022/06/01 13:51:36;;;;;;;0.93;0.93;;;;;;;;;;4989949;28;20244;-40
2022/06/01 13:54:18;;;;;;;1.13;1.00;;;;;;;;;;4984009;28;20196;-34
2022/06/01 13:56:46;;;;;;;1.50;1.00;;;;;;;;;;4983267;28;20232;-39
2022/06/01 13:59:14;;;;;;;1.07;1.07;;;;;;;;;;4979628;28;20232;-37
2022/06/01 14:01:44;;;;;;;3.15;0.80;;;;;;;;;;4983190;28;20232;-39
2022/06/01 14:04:14;;;;;;;0.97;0.80;;;;;;;;;;4979578;28;20200;-32
2022/06/01 14:06:42;;;;;;;1.17;0.93;;;;;;;;;;4979907;28;20299;-37
2022/06/01 14:09:10;;;;;;;0.93;0.90;;;;;;;;;;4981279;28;20204;-40
2022/06/01 14:11:37;;;;;;;1.00;1.00;;;;;;;;;;4979184;28;20232;-36
2022/06/01 14:14:06;;;;;;;2.05;1.10;;;;;;;;;;4986736;28;20208;-35
2022/06/01 14:16:34;;;;;;;2.47;1.05;;;;;;;;;;4985567;28;20231;-39
2022/06/01 14:19:04;;;;;;;0.88;0.85;;;;;;;;;;4986358;28;20196;-34
2022/06/01 14:21:31;;;;;;;2.60;1.00;;;;;;;;;;4988394;28;20226;-37
2022/06/01 14:23:59;;;;;;;2.00;1.40;;;;;;;;;;4984530;28;20227;-37
2022/06/01 14:31:44;;;;;;;1.20;1.10;;;;;;;;;;4974984;28;20224;-29
2022/06/01 14:34:14;;;;;;;1.50;1.00;;;;;;;;;;4984314;28;20247;-30
2022/06/01 14:36:42;;;;;;;1.58;1.00;;;;;;;;;;4987763;28;20226;-32
2022/06/01 14:39:09;;;;;;;1.20;1.13;;;;;;;;;;4974102;28;20215;-29
2022/06/01 14:41:39;;;;;;;1.73;0.93;;;;;;;;;;4965385;28;20267;-32
2022/06/01 14:44:07;;;;;;;1.53;1.00;;;;;;;;;;4982639;28;20215;-33
2022/06/01 14:46:35;;;;;;;3.13;1.10;;;;;;;;;;4967657;28;20225;-31
2022/06/01 14:49:02;;;;;;;1.00;1.00;;;;;;;;;;4980190;28;20204;-32
2022/06/01 14:51:33;;;;;;;2.60;1.30;;;;;;;;;;4965374;28;20216;-29
2022/06/01 14:54:01;;;;;;;4.57;1.20;;;;;;;;;;4969393;28;20264;-31
2022/06/01 14:56:28;;;;;;;1.13;1.02;;;;;;;;;;4981867;28;20244;-31
2022/06/01 14:59:01;;;;;;;1.73;1.30;;;;;;;;;;4962097;28;20312;-30
2022/06/01 15:01:30;;;;;;;1.83;1.20;;;;;;;;;;4959434;28;20221;-29
2022/06/01 15:03:58;;;;;;;1.30;1.20;;;;;;;;;;4965859;28;20256;-31
2022/06/01 15:06:26;;;;;;;2.83;1.20;;;;;;;;;;4973547;28;20227;-31
2022/06/01 15:08:54;;;;;;;1.35;1.20;;;;;;;;;;4988680;28;20282;-30
2022/06/01 15:11:22;;;;;;;3.17;1.27;;;;;;;;;;4978553;28;20263;-31
2022/06/01 15:13:50;;;;;;;1.92;1.20;;;;;;;;;;4965129;28;20260;-31
2022/06/01 15:16:19;;;;;;;2.88;1.48;;;;;;;;;;4963841;28;20232;-32
2022/06/01 15:18:51;;;;;;;2.70;1.52;;;;;;;;;;4983250;28;20197;-29
2022/06/01 15:21:20;;;;;;;1.50;1.20;;;;;;;;;;4984858;28;20212;-31
2022/06/01 15:23:48;;;;;;;1.85;1.23;;;;;;;;;;4990158;28;20232;-30
2022/06/01 15:26:18;;;;;;;1.88;1.10;;;;;;;;;;4962357;28;20229;-30
2022/06/01 15:28:45;;;;;;;1.60;1.15;;;;;;;;;;4983865;28;20200;-30
2022/06/01 15:39:33;;;;;;;1.13;1.02;;;;;;;;;;4984313;28;20268;-31
2022/06/01 15:42:03;;;;;;;1.83;1.23;;;;;;;;;;4961602;28;20247;-30
2022/06/01 15:44:30;;;;;;;2.42;1.10;;;;;;;;;;4970894;28;20210;-30